Time;durP1;ratioP1;P1;durP2;ratioP2;P2;SDS_P1;SDS_P2;PMS_P1;PMS_P2;Temp;Humidity;BMP_temperature;BMP_pressure;BME280_temperature;BME280_humidity;BME280_pressure;Samples;Min_cycle;Max_cycle;Signal;HPM_P1;HPM_P2
2021/05/16 00:00:20;;;;;;;66.75;18.65;;;11.30;99.90;;;;;;5012771;28;20062;-62
2021/05/16 00:05:30;;;;;;;53.80;17.02;;;11.30;99.90;;;;;;5002572;28;20113;-62
2021/05/16 00:11:00;;;;;;;47.53;15.88;;;11.30;99.90;;;;;;4993689;28;20521;-61
2021/05/16 00:16:48;;;;;;;48.25;15.25;;;11.30;99.90;;;;;;5003744;28;20406;-61
2021/05/16 00:22:37;;;;;;;51.17;15.18;;;11.10;99.90;;;;;;5008695;28;20037;-62
2021/05/16 00:25:05;;;;;;;46.08;15.32;;;11.10;99.90;;;;;;5021658;28;20551;-63
2021/05/16 00:27:31;;;;;;;57.35;14.32;;;11.10;99.90;;;;;;5008857;28;20121;-63
2021/05/16 00:29:57;;;;;;;55.88;14.52;;;11.10;99.90;;;;;;5008793;28;20500;-62
2021/05/16 00:33:00;;;;;;;58.03;15.13;;;11.00;99.90;;;;;;5008485;28;20038;-65
2021/05/16 00:35:28;;;;;;;58.80;16.00;;;11.10;99.90;;;;;;5005708;28;20030;-64
2021/05/16 00:40:57;;;;;;;;;;;11.00;99.90;;;;;;5008670;28;20141;-66
2021/05/16 00:43:41;;;;;;;53.67;16.13;;;11.00;99.90;;;;;;5000445;28;20449;-65
2021/05/16 00:46:44;;;;;;;51.53;15.13;;;10.90;99.90;;;;;;5009411;28;20102;-64
2021/05/16 00:49:11;;;;;;;50.55;15.48;;;10.90;99.90;;;;;;5006865;28;20105;-65
2021/05/16 00:51:55;;;;;;;48.13;14.70;;;10.90;99.90;;;;;;5017319;28;20045;-65
2021/05/16 01:00:13;;;;;;;51.60;14.55;;;10.80;99.90;;;;;;5001809;28;20119;-69
2021/05/16 01:05:23;;;;;;;57.65;14.57;;;10.80;99.90;;;;;;4994186;28;20049;-65
2021/05/16 01:07:50;;;;;;;50.67;14.57;;;10.80;99.90;;;;;;5007259;28;20025;-66
2021/05/16 01:10:19;;;;;;;57.08;14.93;;;10.80;99.90;;;;;;5007924;28;20676;-64
2021/05/16 01:13:05;;;;;;;51.22;14.48;;;10.80;99.90;;;;;;5007303;28;20649;-66
2021/05/16 01:15:49;;;;;;;40.33;13.40;;;10.90;99.90;;;;;;5006984;28;20018;-65
2021/05/16 01:18:15;;;;;;;52.05;14.73;;;10.90;99.90;;;;;;5004665;28;20113;-66
2021/05/16 01:24:22;;;;;;;65.63;15.98;;;11.10;99.90;;;;;;5003783;28;20025;-66
2021/05/16 01:35:22;;;;;;;45.50;12.98;;;11.00;99.90;;;;;;5008591;28;20134;-68
2021/05/16 01:37:49;;;;;;;50.15;11.00;;;11.00;99.90;;;;;;4999820;28;20058;-65
2021/05/16 01:40:38;;;;;;;54.30;12.57;;;11.00;99.90;;;;;;5005256;28;20022;-62
2021/05/16 01:46:06;;;;;;;61.97;14.23;;;10.90;99.90;;;;;;5003740;28;20045;-62
2021/05/16 01:48:51;;;;;;;55.58;13.10;;;10.90;99.90;;;;;;4984408;28;20378;-63
2021/05/16 01:54:22;;;;;;;52.75;15.88;;;10.80;99.90;;;;;;5005942;28;20040;-62
2021/05/16 01:57:07;;;;;;;40.80;15.88;;;10.80;99.90;;;;;;4985308;28;20034;-62
2021/05/16 01:59:51;;;;;;;51.45;16.35;;;10.80;99.90;;;;;;5005030;28;20080;-62
2021/05/16 02:02:17;;;;;;;54.90;16.73;;;10.90;99.90;;;;;;5010883;28;20138;-64
2021/05/16 02:05:03;;;;;;;58.55;16.42;;;10.80;99.90;;;;;;5005653;28;20037;-65
2021/05/16 02:07:47;;;;;;;63.30;16.38;;;10.80;99.90;;;;;;5010238;28;20777;-65
2021/05/16 02:10:15;;;;;;;48.67;14.70;;;10.80;99.90;;;;;;4999090;28;20026;-66
2021/05/16 02:15:25;;;;;;;52.65;14.15;;;10.90;99.90;;;;;;5007881;28;20092;-66
2021/05/16 02:18:14;;;;;;;60.78;14.00;;;10.80;99.90;;;;;;4999221;28;20030;-65
2021/05/16 02:20:58;;;;;;;47.90;14.50;;;10.80;99.90;;;;;;5003517;28;20080;-66
2021/05/16 02:23:24;;;;;;;50.58;13.23;;;10.80;99.90;;;;;;5010660;28;20601;-62
2021/05/16 02:29:30;;;;;;;57.13;14.52;;;10.70;99.90;;;;;;4997831;28;20037;-64
2021/05/16 02:31:57;;;;;;;42.00;13.13;;;10.70;99.90;;;;;;5009944;28;20064;-61
2021/05/16 02:34:23;;;;;;;53.22;14.57;;;10.80;99.90;;;;;;5008233;28;20037;-63
2021/05/16 02:36:49;;;;;;;57.47;15.70;;;10.80;99.90;;;;;;5010052;28;20053;-61
2021/05/16 02:39:15;;;;;;;48.33;13.65;;;10.80;99.90;;;;;;5008046;28;20170;-61
2021/05/16 02:44:27;;;;;;;49.90;13.98;;;10.80;99.90;;;;;;4992997;28;20509;-64
2021/05/16 02:46:53;;;;;;;46.42;14.30;;;10.80;99.90;;;;;;5007239;28;20030;-62
2021/05/16 02:58:47;;;;;;;63.33;14.35;;;10.70;99.90;;;;;;5005669;28;20025;-62
2021/05/16 03:01:12;;;;;;;54.75;15.75;;;10.80;99.90;;;;;;5008150;28;20038;-67
2021/05/16 03:07:00;;;;;;;;;;;10.70;99.90;;;;;;5004288;28;20081;-68
2021/05/16 03:09:44;;;;;;;59.47;16.52;;;10.70;99.90;;;;;;5012407;28;20380;-64
2021/05/16 03:12:10;;;;;;;61.28;17.02;;;10.70;99.90;;;;;;5005123;28;20122;-62
2021/05/16 03:14:55;;;;;;;66.97;16.55;;;10.80;99.90;;;;;;5007891;28;20096;-63
2021/05/16 03:17:39;;;;;;;67.88;19.63;;;10.70;99.90;;;;;;5001681;28;20034;-63
2021/05/16 03:20:05;;;;;;;60.58;17.38;;;10.70;99.90;;;;;;5013931;28;20038;-66
2021/05/16 03:22:50;;;;;;;66.35;19.23;;;10.70;99.90;;;;;;5011615;28;20038;-62
2021/05/16 03:25:15;;;;;;;67.65;18.67;;;10.70;99.90;;;;;;5005919;28;20044;-63
2021/05/16 03:27:41;;;;;;;54.65;17.50;;;10.60;99.90;;;;;;5009767;28;20025;-67
2021/05/16 03:30:26;;;;;;;68.90;18.15;;;10.60;99.90;;;;;;5009004;28;20104;-64
2021/05/16 03:39:17;;;;;;;56.95;17.27;;;10.60;99.90;;;;;;5001692;28;20037;-65
2021/05/16 03:42:20;;;;;;;75.63;18.73;;;10.60;99.90;;;;;;5008288;28;20393;-67
2021/05/16 03:45:06;;;;;;;61.60;17.88;;;10.60;99.90;;;;;;4998597;28;20084;-65
2021/05/16 03:47:50;;;;;;;65.95;18.98;;;10.70;99.90;;;;;;5002831;28;20029;-65
2021/05/16 03:50:15;;;;;;;58.88;16.83;;;10.70;99.90;;;;;;5001786;28;20398;-70
2021/05/16 03:52:43;;;;;;;55.78;17.60;;;10.60;99.90;;;;;;5008262;28;20034;-67
2021/05/16 03:55:33;;;;;;;65.18;18.85;;;10.60;99.90;;;;;;5005820;28;20032;-67
2021/05/16 03:58:17;;;;;;;48.60;16.13;;;10.50;99.90;;;;;;5002285;28;20445;-67
2021/05/16 04:03:45;;;;;;;54.33;16.25;;;10.60;99.90;;;;;;4989326;28;20034;-67
2021/05/16 04:08:55;;;;;;;58.35;17.08;;;10.60;99.90;;;;;;5024775;28;20086;-65
2021/05/16 04:11:21;;;;;;;57.35;16.38;;;10.60;99.90;;;;;;5020561;28;20453;-65
2021/05/16 04:14:06;;;;;;;64.93;17.92;;;10.60;99.90;;;;;;5003866;28;20022;-62
2021/05/16 04:16:50;;;;;;;59.40;17.65;;;10.60;99.90;;;;;;4990148;28;20080;-63
2021/05/16 04:19:16;;;;;;;59.30;16.83;;;10.70;99.90;;;;;;5000054;28;20042;-63
2021/05/16 04:21:42;;;;;;;44.55;14.90;;;10.60;99.90;;;;;;5004346;28;20091;-64
2021/05/16 04:24:08;;;;;;;56.67;16.35;;;10.60;99.90;;;;;;5000038;28;20026;-64
2021/05/16 04:26:34;;;;;;;63.60;16.48;;;10.60;99.90;;;;;;5012344;28;20456;-64
2021/05/16 04:32:22;;;;;;;;;;;10.60;99.90;;;;;;5001787;28;20108;-69
2021/05/16 04:34:47;;;;;;;58.05;15.48;;;10.50;99.90;;;;;;5004458;28;19968;-66
2021/05/16 04:40:16;;;;;;;51.13;14.88;;;10.60;99.90;;;;;;5010272;28;20131;-63
2021/05/16 04:42:42;;;;;;;53.13;14.80;;;10.50;99.90;;;;;;5007523;28;20057;-65
2021/05/16 04:45:09;;;;;;;55.80;14.95;;;10.60;99.90;;;;;;4999402;28;20036;-67
2021/05/16 04:47:53;;;;;;;67.07;16.67;;;10.70;99.90;;;;;;5007339;28;20057;-68
2021/05/16 04:50:56;;;;;;;45.05;13.60;;;10.60;99.90;;;;;;5007684;28;20056;-67
2021/05/16 04:53:40;;;;;;;;;;;10.60;99.90;;;;;;5007340;28;20125;-67
2021/05/16 04:56:06;;;;;;;49.67;14.85;;;10.60;99.90;;;;;;5002779;28;19917;-68
2021/05/16 04:58:50;;;;;;;53.03;14.57;;;10.60;99.90;;;;;;5004762;28;20543;-68
2021/05/16 05:01:35;;;;;;;58.17;16.10;;;10.60;99.90;;;;;;5010858;28;20052;-68
2021/05/16 05:04:01;;;;;;;48.70;15.05;;;10.70;99.90;;;;;;5016790;28;20096;-68
2021/05/16 05:06:29;;;;;;;54.88;15.40;;;10.70;99.90;;;;;;5014617;28;20025;-70
2021/05/16 05:12:36;;;;;;;54.20;15.30;;;10.60;99.90;;;;;;4991104;28;20516;-67
2021/05/16 05:18:06;;;;;;;58.25;15.80;;;10.70;99.90;;;;;;5013066;28;20278;-66
2021/05/16 05:20:32;;;;;;;54.83;16.48;;;10.70;99.90;;;;;;5006058;28;20112;-62
2021/05/16 05:22:58;;;;;;;51.45;14.55;;;10.70;99.90;;;;;;5016999;28;20064;-64
2021/05/16 05:25:24;;;;;;;58.28;14.55;;;10.70;99.90;;;;;;5004201;28;20042;-62
2021/05/16 05:31:12;;;;;;;54.05;16.23;;;10.80;99.90;;;;;;5001599;28;20087;-62
2021/05/16 05:33:37;;;;;;;61.72;16.83;;;10.80;99.90;;;;;;5011079;28;20074;-63
2021/05/16 05:36:23;;;;;;;51.30;16.25;;;10.90;99.90;;;;;;5015900;28;20026;-65
2021/05/16 05:38:48;;;;;;;57.15;16.02;;;11.00;99.90;;;;;;5018151;28;20017;-70
2021/05/16 05:41:14;;;;;;;60.83;16.92;;;11.00;99.90;;;;;;5010994;28;20417;-62
2021/05/16 05:43:40;;;;;;;65.68;16.80;;;11.00;99.90;;;;;;5000985;28;20088;-64
2021/05/16 05:46:24;;;;;;;41.30;15.43;;;11.00;99.90;;;;;;4995746;28;20441;-62
2021/05/16 05:49:09;;;;;;;45.08;15.70;;;11.10;99.90;;;;;;5005703;28;20520;-62
2021/05/16 05:51:53;;;;;;;45.38;14.70;;;11.10;99.90;;;;;;5000460;28;20095;-66
2021/05/16 06:00:44;;;;;;;42.45;13.80;;;11.10;99.90;;;;;;5006960;28;20559;-68
2021/05/16 06:03:09;;;;;;;57.75;15.02;;;10.90;99.90;;;;;;4992919;28;20576;-66
2021/05/16 06:11:22;;;;;;;;;;;10.90;99.90;;;;;;5003893;28;20341;-63
2021/05/16 06:16:32;;;;;;;61.20;15.55;;;10.80;99.90;;;;;;5002036;28;20037;-62
2021/05/16 06:18:59;;;;;;;42.53;14.77;;;10.80;99.90;;;;;;5004994;28;20034;-63
2021/05/16 06:21:26;;;;;;;52.10;15.52;;;10.80;99.90;;;;;;5004824;28;20034;-63
2021/05/16 06:24:06;;;;;;;44.13;15.07;;;10.90;99.90;;;;;;5006125;28;20026;-61
2021/05/16 06:29:41;;;;;;;50.97;14.55;;;11.00;99.90;;;;;;5005622;28;20045;-63
2021/05/16 06:32:11;;;;;;;45.15;14.02;;;11.10;99.90;;;;;;5005356;28;20026;-65
2021/05/16 06:34:55;;;;;;;51.15;15.15;;;11.20;99.90;;;;;;5004141;28;20049;-64
2021/05/16 06:37:39;;;;;;;61.53;15.85;;;11.30;99.90;;;;;;5006632;28;20753;-64
2021/05/16 06:40:06;;;;;;;38.67;14.52;;;11.40;99.90;;;;;;4993111;28;20049;-66
2021/05/16 06:46:12;;;;;;;53.60;15.90;;;11.30;99.90;;;;;;5006307;28;20064;-64
2021/05/16 06:51:41;;;;;;;56.67;15.20;;;11.30;99.90;;;;;;5020770;28;20080;-61
2021/05/16 06:59:56;;;;;;;41.58;14.02;;;11.10;99.90;;;;;;5010084;28;20430;-63
2021/05/16 07:02:22;;;;;;;55.67;15.35;;;11.20;99.90;;;;;;5010861;28;20040;-63
2021/05/16 07:19:45;;;;;;;44.22;13.95;;;11.70;99.90;;;;;;5018729;28;20076;-69
2021/05/16 07:22:29;;;;;;;43.53;12.73;;;11.80;99.90;;;;;;5011276;28;20018;-66
2021/05/16 07:25:33;;;;;;;45.72;13.63;;;11.80;99.90;;;;;;5012377;28;20160;-68
2021/05/16 07:30:42;;;;;;;47.08;11.48;;;11.70;99.90;;;;;;5014501;28;20087;-67
2021/05/16 07:42:37;;;;;;;28.42;8.30;;;12.30;99.90;;;;;;5021327;28;20122;-67
2021/05/16 07:48:06;;;;;;;32.00;7.47;;;12.40;99.90;;;;;;5014286;28;20087;-67
2021/05/16 07:53:35;;;;;;;20.92;6.65;;;12.60;99.90;;;;;;5019435;28;20227;-69
2021/05/16 07:56:03;;;;;;;36.00;8.20;;;12.70;99.90;;;;;;5015046;28;20525;-74
2021/05/16 07:58:48;;;;;;;26.80;6.88;;;12.80;99.90;;;;;;5017626;28;20025;-67
2021/05/16 08:01:32;;;;;;;29.73;7.38;;;13.00;99.90;;;;;;5023041;28;20542;-66
2021/05/16 08:03:58;;;;;;;36.17;8.00;;;12.90;99.90;;;;;;5020934;28;20118;-64
2021/05/16 08:06:43;;;;;;;30.92;7.82;;;13.00;99.90;;;;;;5012793;28;20057;-67
2021/05/16 08:09:08;;;;;;;31.67;8.60;;;12.90;99.90;;;;;;5017464;28;20041;-66
2021/05/16 08:11:34;;;;;;;35.22;8.65;;;12.70;99.90;;;;;;5010281;28;20089;-65
2021/05/16 08:13:59;;;;;;;31.88;9.50;;;12.60;99.90;;;;;;5010638;28;20034;-64
2021/05/16 08:19:28;;;;;;;26.02;7.93;;;12.60;99.90;;;;;;5017635;28;20404;-65
2021/05/16 08:25:36;;;;;;;30.30;7.38;;;12.70;99.90;;;;;;5002500;28;20281;-65
2021/05/16 08:34:27;;;;;;;36.72;7.00;;;12.60;99.90;;;;;;5005024;28;20037;-67
2021/05/16 08:37:12;;;;;;;38.85;6.25;;;12.50;99.90;;;;;;5002830;28;20022;-64
2021/05/16 08:39:38;;;;;;;33.50;6.15;;;12.50;99.90;;;;;;5019572;28;20018;-62
2021/05/16 08:42:22;;;;;;;28.00;6.13;;;12.50;99.90;;;;;;5008473;28;20037;-63
2021/05/16 08:44:48;;;;;;;36.17;5.85;;;12.60;99.90;;;;;;5006817;28;20112;-64
2021/05/16 08:47:14;;;;;;;24.88;5.70;;;12.80;99.90;;;;;;5011893;28;20112;-63
2021/05/16 08:49:40;;;;;;;34.92;7.95;;;13.00;99.90;;;;;;5009975;28;20030;-65
2021/05/16 08:52:06;;;;;;;23.77;6.68;;;13.20;99.90;;;;;;5009213;28;20018;-63
2021/05/16 08:54:53;;;;;;;25.33;5.47;;;13.30;99.90;;;;;;5006958;28;20076;-64
2021/05/16 08:57:19;;;;;;;24.50;6.35;;;13.20;99.90;;;;;;5000860;28;20040;-63
2021/05/16 09:03:18;;;;;;;33.63;6.95;;;13.30;99.90;;;;;;5007667;28;20017;-65
2021/05/16 09:09:05;;;;;;;;;;;14.00;99.90;;;;;;5020690;28;20033;-63
2021/05/16 09:11:31;;;;;;;23.25;6.35;;;14.20;99.90;;;;;;5033858;28;19909;-64
2021/05/16 09:13:56;;;;;;;19.05;6.05;;;14.20;99.90;;;;;;5015560;28;20045;-68
2021/05/16 09:16:41;;;;;;;29.98;7.00;;;14.20;99.90;;;;;;5004397;28;20026;-65
2021/05/16 09:21:50;;;;;;;33.70;5.75;;;14.30;99.90;;;;;;5010823;28;20084;-64
2021/05/16 09:24:16;;;;;;;41.03;5.35;;;14.40;99.90;;;;;;5009565;28;20030;-63
2021/05/16 09:27:11;;;;;;;25.25;4.88;;;14.30;99.90;;;;;;5003946;28;20402;-63
2021/05/16 09:32:26;;;;;;;18.95;4.55;;;13.80;99.90;;;;;;5007595;28;20480;-63
2021/05/16 09:34:52;;;;;;;25.60;6.10;;;13.90;99.90;;;;;;5006228;28;20073;-64
2021/05/16 09:37:17;;;;;;;23.40;4.82;;;13.90;99.90;;;;;;5001576;28;20648;-63
2021/05/16 09:39:45;;;;;;;24.48;4.45;;;13.80;99.90;;;;;;5001854;28;20038;-66
2021/05/16 09:42:13;;;;;;;22.40;4.22;;;13.90;99.90;;;;;;5008544;28;20410;-60
2021/05/16 09:45:01;;;;;;;26.35;4.32;;;14.30;99.90;;;;;;5010393;28;20434;-63
2021/05/16 09:47:28;;;;;;;26.15;4.55;;;14.80;99.90;;;;;;5008905;28;20080;-63
2021/05/16 09:53:18;;;;;;;24.95;3.65;;;15.20;99.90;;;;;;5009230;28;20044;-65
2021/05/16 09:55:43;;;;;;;24.48;5.25;;;15.50;99.90;;;;;;4994006;28;20097;-64
2021/05/16 09:58:09;;;;;;;20.05;4.60;;;15.30;99.90;;;;;;5006196;28;20026;-64
2021/05/16 10:03:39;;;;;;;13.50;4.47;;;15.80;99.90;;;;;;5004022;28;20654;-64
2021/05/16 10:06:24;;;;;;;22.95;4.40;;;15.40;99.90;;;;;;4998547;28;20032;-62
2021/05/16 10:11:53;;;;;;;17.25;4.32;;;15.10;99.90;;;;;;5000129;28;20414;-62
2021/05/16 10:14:42;;;;;;;17.67;4.25;;;15.30;99.90;;;;;;5008253;28;20530;-65
2021/05/16 10:19:54;;;;;;;16.83;3.97;;;15.60;99.90;;;;;;5003489;28;20032;-63
2021/05/16 10:25:39;;;;;;;;;;;16.00;99.90;;;;;;4999958;28;20381;-62
2021/05/16 10:28:05;;;;;;;14.97;3.53;;;16.30;99.90;;;;;;5004409;28;19906;-65
2021/05/16 10:33:34;;;;;;;9.50;2.03;;;16.10;99.90;;;;;;5009128;28;20032;-61
2021/05/16 10:39:42;;;;;;;10.05;1.23;;;16.20;99.90;;;;;;5003237;28;20081;-65
2021/05/16 10:42:36;;;;;;;9.13;2.28;;;16.10;99.90;;;;;;5007726;28;20132;-65
2021/05/16 10:45:34;;;;;;;11.10;2.42;;;15.80;99.90;;;;;;4998302;28;20453;-61
2021/05/16 10:50:56;;;;;;;12.40;3.17;;;15.40;99.90;;;;;;5005762;28;20033;-62
2021/05/16 10:53:25;;;;;;;12.52;2.60;;;15.30;99.90;;;;;;4997945;28;20052;-63
2021/05/16 10:56:01;;;;;;;14.30;2.63;;;15.20;99.90;;;;;;5007634;28;20037;-63
2021/05/16 10:58:53;;;;;;;12.68;3.75;;;15.20;99.90;;;;;;5002663;28;20609;-64
2021/05/16 11:01:38;;;;;;;12.77;2.83;;;14.80;99.90;;;;;;5007024;28;20117;-64
2021/05/16 11:04:05;;;;;;;14.32;3.20;;;14.80;99.90;;;;;;5005619;28;20679;-63
2021/05/16 11:09:35;;;;;;;17.63;3.47;;;13.70;99.90;;;;;;5006503;28;20065;-65
2021/05/16 11:14:45;;;;;;;15.10;2.97;;;13.40;99.90;;;;;;5008384;28;22099;-62
2021/05/16 11:17:29;;;;;;;19.23;3.33;;;13.50;99.90;;;;;;5003081;28;20026;-61
2021/05/16 11:23:16;;;;;;;11.48;3.35;;;13.30;99.90;;;;;;4992328;28;20084;-62
2021/05/16 11:25:42;;;;;;;9.75;2.72;;;13.00;99.90;;;;;;5001740;28;20082;-63
2021/05/16 11:28:09;;;;;;;9.63;2.63;;;12.80;99.90;;;;;;5014626;28;20033;-62
2021/05/16 11:33:57;;;;;;;8.48;2.03;;;13.00;99.90;;;;;;5013898;28;20098;-65
2021/05/16 11:36:41;;;;;;;12.00;2.97;;;12.70;99.90;;;;;;5008848;28;20030;-64
2021/05/16 11:39:25;;;;;;;11.52;2.72;;;12.50;99.90;;;;;;5000144;28;20072;-63
2021/05/16 11:42:10;;;;;;;12.10;3.03;;;12.40;99.90;;;;;;5010598;28;20061;-62
2021/05/16 11:44:35;;;;;;;7.95;1.98;;;12.10;99.90;;;;;;5009590;28;20025;-66
2021/05/16 11:47:03;;;;;;;7.55;2.40;;;11.90;99.90;;;;;;5004172;28;20029;-67
2021/05/16 11:49:32;;;;;;;10.38;2.88;;;11.70;99.90;;;;;;5006393;28;20084;-64
2021/05/16 11:51:59;;;;;;;8.15;2.70;;;11.40;99.90;;;;;;5008906;28;20029;-65
2021/05/16 11:55:03;;;;;;;7.70;2.70;;;11.30;99.90;;;;;;5005287;28;20572;-64
2021/05/16 11:57:29;;;;;;;6.70;2.80;;;11.00;99.90;;;;;;5004662;28;20030;-63
2021/05/16 11:59:54;;;;;;;5.50;2.97;;;11.00;99.90;;;;;;5007636;28;20492;-63
2021/05/16 12:02:20;;;;;;;3.80;2.40;;;11.00;99.90;;;;;;4998665;28;20027;-62
2021/05/16 12:05:04;;;;;;;7.47;2.90;;;11.10;99.90;;;;;;5010653;28;20022;-60
2021/05/16 12:07:30;;;;;;;5.03;2.45;;;11.00;99.90;;;;;;5006284;28;20034;-60
2021/05/16 12:09:56;;;;;;;4.72;2.70;;;11.00;99.90;;;;;;5008033;28;20552;-60
2021/05/16 12:21:24;;;;;;;6.75;2.53;;;11.10;99.90;;;;;;5003507;28;20091;-61
2021/05/16 12:23:55;;;;;;;6.28;2.33;;;11.30;99.90;;;;;;5007372;28;20037;-62
2021/05/16 12:26:22;;;;;;;8.30;2.70;;;11.50;99.90;;;;;;5004682;28;20033;-62
2021/05/16 12:32:10;;;;;;;7.75;2.60;;;11.70;99.90;;;;;;5014040;28;20092;-63
2021/05/16 12:34:55;;;;;;;6.05;2.83;;;11.70;99.90;;;;;;5007061;28;20026;-61
2021/05/16 12:37:22;;;;;;;7.53;2.45;;;12.20;99.90;;;;;;5015289;28;20032;-62
2021/05/16 12:40:22;;;;;;;3.88;2.47;;;12.30;99.90;;;;;;5006990;28;20022;-62
2021/05/16 12:43:07;;;;;;;6.95;2.58;;;12.50;99.90;;;;;;5005664;28;20037;-62
2021/05/16 12:45:51;;;;;;;9.07;2.75;;;12.40;99.90;;;;;;5002383;28;20034;-60
2021/05/16 12:48:38;;;;;;;4.20;2.63;;;12.80;99.90;;;;;;5013655;28;20026;-65
2021/05/16 12:51:41;;;;;;;4.40;2.50;;;13.20;99.90;;;;;;5023616;28;20056;-63
2021/05/16 12:54:25;;;;;;;;;;;13.40;99.90;;;;;;5005633;28;20023;-62
2021/05/16 12:57:03;;;;;;;4.63;2.50;;;13.40;99.90;;;;;;5007229;28;19916;-61
2021/05/16 12:59:48;;;;;;;4.28;2.70;;;13.70;99.90;;;;;;5004232;28;20022;-62
2021/05/16 13:05:18;;;;;;;4.22;1.58;;;14.00;99.90;;;;;;4994183;28;20410;-62
2021/05/16 13:07:51;;;;;;;5.63;1.85;;;14.00;99.90;;;;;;5007646;28;20034;-64
2021/05/16 13:10:31;;;;;;;4.78;2.00;;;14.00;99.90;;;;;;5006821;28;20030;-62
2021/05/16 13:13:21;;;;;;;3.65;2.00;;;14.20;99.90;;;;;;5001648;28;20059;-63
2021/05/16 13:16:06;;;;;;;4.78;2.35;;;14.50;99.90;;;;;;5006964;28;20068;-63
2021/05/16 13:18:55;;;;;;;6.00;1.95;;;14.60;99.90;;;;;;5005716;28;20050;-65
2021/05/16 13:21:40;;;;;;;6.38;1.92;;;14.80;99.90;;;;;;5006194;28;20117;-64
2021/05/16 13:24:24;;;;;;;3.95;2.03;;;15.00;99.90;;;;;;4998394;28;20477;-63
2021/05/16 13:32:21;;;;;;;3.50;1.45;;;14.80;99.90;;;;;;5006259;28;20053;-62
2021/05/16 13:35:06;;;;;;;4.97;1.20;;;14.60;99.90;;;;;;5007414;28;20026;-61
2021/05/16 13:37:50;;;;;;;4.88;1.65;;;14.60;99.90;;;;;;5005998;28;20076;-63
2021/05/16 13:40:17;;;;;;;5.22;1.60;;;14.70;99.90;;;;;;5007589;28;20037;-62
2021/05/16 13:43:01;;;;;;;4.30;1.80;;;14.90;99.90;;;;;;5000771;28;20049;-64
2021/05/16 13:48:11;;;;;;;2.50;1.42;;;14.80;99.90;;;;;;5005199;28;20036;-63
2021/05/16 13:50:37;;;;;;;9.60;2.47;;;14.90;99.90;;;;;;5006847;28;20112;-65
2021/05/16 13:53:21;;;;;;;2.97;1.92;;;14.80;99.90;;;;;;5006200;28;20073;-62
2021/05/16 13:56:05;;;;;;;6.05;1.75;;;15.00;99.90;;;;;;5002943;28;20034;-62
2021/05/16 14:01:53;;;;;;;;;;;15.30;99.90;;;;;;5000369;28;20552;-62
2021/05/16 14:04:19;;;;;;;2.58;1.50;;;15.30;99.90;;;;;;5009249;28;20337;-63
2021/05/16 14:07:22;;;;;;;7.72;1.42;;;15.30;99.90;;;;;;5015744;28;20025;-62
2021/05/16 14:12:51;;;;;;;5.97;1.70;;;15.50;99.90;;;;;;5004587;28;20107;-62
2021/05/16 14:15:17;;;;;;;4.50;1.60;;;15.30;99.90;;;;;;5009407;28;20072;-63
2021/05/16 14:18:01;;;;;;;3.33;1.52;;;15.10;99.90;;;;;;5009538;28;20034;-63
2021/05/16 14:20:27;;;;;;;3.45;1.50;;;15.10;99.90;;;;;;5004115;28;20027;-65
2021/05/16 14:22:52;;;;;;;4.28;1.50;;;15.00;99.90;;;;;;4990909;28;20053;-63
2021/05/16 14:25:37;;;;;;;3.75;1.13;;;14.90;99.90;;;;;;4995613;28;20032;-63
2021/05/16 14:28:02;;;;;;;4.80;1.55;;;14.80;99.90;;;;;;5010452;28;20049;-63
2021/05/16 14:30:28;;;;;;;5.55;1.83;;;14.90;99.90;;;;;;5009418;28;20464;-65
2021/05/16 14:32:54;;;;;;;3.72;1.30;;;15.10;99.90;;;;;;5008394;28;20029;-62
2021/05/16 14:35:19;;;;;;;2.70;1.42;;;15.10;99.90;;;;;;5003980;28;20117;-63
2021/05/16 14:41:07;;;;;;;3.88;1.30;;;15.10;99.90;;;;;;5009427;28;20037;-62
2021/05/16 14:43:37;;;;;;;11.18;1.60;;;15.20;99.90;;;;;;5009845;28;20088;-65
2021/05/16 14:46:04;;;;;;;7.90;2.05;;;15.20;99.90;;;;;;5009813;28;20017;-66
2021/05/16 14:48:29;;;;;;;6.80;1.60;;;15.30;99.90;;;;;;5008377;28;20026;-63
2021/05/16 14:51:08;;;;;;;2.28;1.13;;;15.30;99.90;;;;;;5010770;28;20449;-63
2021/05/16 14:53:53;;;;;;;2.00;1.30;;;15.30;99.90;;;;;;5009606;28;20033;-65
2021/05/16 14:56:57;;;;;;;3.33;1.85;;;15.40;99.90;;;;;;5011219;28;20041;-65
2021/05/16 14:59:41;;;;;;;2.72;1.67;;;15.60;99.90;;;;;;5010580;28;20449;-67
2021/05/16 15:04:51;;;;;;;5.30;1.92;;;15.70;99.90;;;;;;5004677;28;20104;-65
2021/05/16 15:10:39;;;;;;;3.28;1.50;;;15.50;99.90;;;;;;5000174;28;20296;-64
2021/05/16 15:13:04;;;;;;;6.05;2.22;;;15.30;99.90;;;;;;5010214;28;20030;-66
2021/05/16 15:15:30;;;;;;;2.55;1.67;;;15.30;99.90;;;;;;5009334;28;20022;-65
2021/05/16 15:17:55;;;;;;;4.68;1.92;;;15.30;99.90;;;;;;5023058;28;20033;-67
2021/05/16 15:20:22;;;;;;;3.38;1.55;;;15.20;99.90;;;;;;5004098;28;20037;-67
2021/05/16 15:22:48;;;;;;;6.72;1.65;;;15.30;99.90;;;;;;5000668;28;20865;-64
2021/05/16 15:25:13;;;;;;;5.63;2.10;;;15.50;99.90;;;;;;5013427;28;20113;-65
2021/05/16 15:30:42;;;;;;;3.67;1.80;;;15.40;99.90;;;;;;5008835;28;20033;-67
2021/05/16 15:33:27;;;;;;;4.55;1.30;;;15.30;99.90;;;;;;5016335;28;20045;-67
2021/05/16 15:35:56;;;;;;;1.80;0.95;;;15.40;99.90;;;;;;5004537;28;20062;-64
2021/05/16 15:38:40;;;;;;;4.18;1.63;;;15.40;99.90;;;;;;4996280;28;20130;-62
2021/05/16 15:41:44;;;;;;;6.32;2.15;;;15.40;99.90;;;;;;4997757;28;20109;-65
2021/05/16 15:47:13;;;;;;;3.50;1.55;;;15.80;99.90;;;;;;5011370;28;20559;-64
2021/05/16 15:49:57;;;;;;;3.40;1.60;;;15.80;99.90;;;;;;5009950;28;20029;-64
2021/05/16 15:52:23;;;;;;;6.07;2.40;;;16.00;99.90;;;;;;5015717;28;20030;-61
2021/05/16 15:54:48;;;;;;;3.70;1.60;;;16.00;99.90;;;;;;5021445;28;20501;-64
2021/05/16 15:57:17;;;;;;;5.00;1.70;;;15.80;99.90;;;;;;5004994;28;20444;-63
2021/05/16 16:00:01;;;;;;;3.35;1.70;;;15.80;99.90;;;;;;5009664;28;20022;-62
2021/05/16 16:05:11;;;;;;;4.10;1.50;;;15.60;99.90;;;;;;5012751;28;20032;-64
2021/05/16 16:07:56;;;;;;;2.72;1.70;;;15.90;99.90;;;;;;5004317;28;20111;-65
2021/05/16 16:10:42;;;;;;;4.72;1.83;;;16.00;99.90;;;;;;4996547;28;20017;-64
2021/05/16 16:13:26;;;;;;;4.53;1.88;;;15.80;99.90;;;;;;4996933;28;20038;-64
2021/05/16 16:18:55;;;;;;;4.45;2.15;;;16.10;99.90;;;;;;4997149;28;20095;-66
2021/05/16 16:24:23;;;;;;;3.83;2.28;;;16.20;99.90;;;;;;5008296;28;20064;-65
2021/05/16 16:27:08;;;;;;;5.90;2.08;;;16.00;99.90;;;;;;5007811;28;20473;-66
2021/05/16 16:29:33;;;;;;;3.50;1.60;;;16.00;99.90;;;;;;5008655;28;20088;-62
2021/05/16 16:35:03;;;;;;;4.90;1.90;;;16.30;99.90;;;;;;5015133;28;20041;-67
2021/05/16 16:37:48;;;;;;;3.45;1.50;;;16.10;99.90;;;;;;5008802;28;20528;-63
2021/05/16 16:40:32;;;;;;;5.45;2.00;;;16.10;99.90;;;;;;5015824;28;20109;-65
2021/05/16 16:43:17;;;;;;;5.97;1.92;;;16.30;99.90;;;;;;5012651;28;20010;-63
2021/05/16 16:48:45;;;;;;;7.43;1.40;;;16.20;99.90;;;;;;5002035;28;20068;-64
2021/05/16 16:56:58;;;;;;;6.13;1.55;;;16.20;99.90;;;;;;5001727;28;20054;-62
2021/05/16 16:59:42;;;;;;;5.55;1.52;;;16.20;99.90;;;;;;5006253;28;20029;-64
2021/05/16 17:02:08;;;;;;;4.85;1.30;;;16.10;99.90;;;;;;5002791;28;20034;-64
2021/05/16 17:04:34;;;;;;;4.03;1.42;;;16.10;99.90;;;;;;5003728;28;20028;-64
2021/05/16 17:09:43;;;;;;;5.55;1.42;;;16.10;99.90;;;;;;5005817;28;20460;-64
2021/05/16 17:15:50;;;;;;;4.55;1.30;;;16.00;99.90;;;;;;5013889;28;20579;-63
2021/05/16 17:18:34;;;;;;;5.93;1.25;;;16.00;99.90;;;;;;5021886;28;20043;-64
2021/05/16 17:21:19;;;;;;;5.22;1.30;;;16.00;99.90;;;;;;5008360;28;20109;-63
2021/05/16 17:24:03;;;;;;;2.70;1.05;;;16.00;99.90;;;;;;5004136;28;20018;-63
2021/05/16 17:29:32;;;;;;;5.57;1.10;;;15.50;99.90;;;;;;5007174;28;20080;-66
2021/05/16 17:32:16;;;;;;;9.95;1.58;;;15.60;99.90;;;;;;5007512;28;20036;-63
2021/05/16 17:35:01;;;;;;;6.95;1.52;;;15.50;99.90;;;;;;5006812;28;20056;-63
2021/05/16 17:37:26;;;;;;;2.65;1.30;;;15.30;99.90;;;;;;5005731;28;20049;-63
2021/05/16 17:39:52;;;;;;;7.30;1.92;;;15.30;99.90;;;;;;5008003;28;20489;-63
2021/05/16 17:48:06;;;;;;;6.63;1.60;;;15.30;99.90;;;;;;5006325;28;20049;-63
2021/05/16 17:50:32;;;;;;;4.43;1.08;;;15.40;99.90;;;;;;5005888;28;20054;-61
2021/05/16 17:56:02;;;;;;;8.60;2.17;;;15.50;99.90;;;;;;5003598;28;20084;-61
2021/05/16 17:58:47;;;;;;;8.05;2.05;;;15.50;99.90;;;;;;5003173;28;20030;-63
2021/05/16 18:01:32;;;;;;;5.22;2.00;;;15.40;99.90;;;;;;5000275;28;20049;-60
2021/05/16 18:03:58;;;;;;;7.45;1.50;;;15.40;99.90;;;;;;5003251;28;20038;-62
2021/05/16 18:10:04;;;;;;;11.88;2.60;;;15.10;99.90;;;;;;4996070;28;20038;-63
2021/05/16 18:15:33;;;;;;;12.68;1.88;;;15.00;99.90;;;;;;5002040;28;20017;-63
2021/05/16 18:21:02;;;;;;;11.13;2.08;;;15.10;99.90;;;;;;4996728;28;20045;-64
2021/05/16 18:23:28;;;;;;;10.98;2.13;;;15.10;99.90;;;;;;5005858;28;20089;-62
2021/05/16 18:25:54;;;;;;;7.93;2.28;;;15.30;99.90;;;;;;5008720;28;20124;-61